createdAt,value
2023-01-08T00:01:29.523Z,95964.66
2023-01-08T00:03:55.972Z,95970.88
2023-01-08T00:06:22.385Z,95981.97
2023-01-08T00:08:48.738Z,95977.56
2023-01-08T00:11:15.112Z,95981.53
2023-01-08T00:13:41.492Z,95977.97
2023-01-08T00:16:07.940Z,95977.34
2023-01-08T00:18:34.372Z,95967.16
2023-01-08T00:21:00.766Z,95971.25
2023-01-08T00:23:27.144Z,95968.06
2023-01-08T00:25:53.532Z,95969.38
2023-01-08T00:28:19.883Z,95957.50
2023-01-08T00:30:46.305Z,95956.28
2023-01-08T00:33:12.670Z,95955.28
2023-01-08T00:35:39.021Z,95933.47
2023-01-08T00:38:05.367Z,95929.84
2023-01-08T00:40:31.753Z,95935.16
2023-01-08T00:42:58.152Z,95922.59
2023-01-08T00:45:24.554Z,95922.66
2023-01-08T00:47:50.909Z,95923.91
2023-01-08T00:50:17.279Z,95907.53
2023-01-08T00:52:43.628Z,95911.97
2023-01-08T00:55:10.003Z,95913.97
2023-01-08T00:57:36.395Z,95899.97
2023-01-08T01:00:02.812Z,95885.78
2023-01-08T01:02:29.257Z,95881.38
2023-01-08T01:04:55.644Z,95880.63
2023-01-08T01:07:22.044Z,95856.75
2023-01-08T01:09:48.408Z,95847.56
2023-01-08T01:12:14.804Z,95842.31
2023-01-08T01:14:41.208Z,95831.75
2023-01-08T01:17:07.601Z,95829.72
2023-01-08T01:19:33.987Z,95820.75
2023-01-08T01:22:00.397Z,95827.75
2023-01-08T01:24:26.793Z,95815.38
2023-01-08T01:26:53.137Z,95815.41
2023-01-08T01:29:19.520Z,95815.59
2023-01-08T01:31:45.875Z,95821.44
2023-01-08T01:34:12.218Z,95827.25
2023-01-08T01:36:38.551Z,95824.94
2023-01-08T01:39:04.925Z,95820.44
2023-01-08T01:41:31.276Z,95820.59
2023-01-08T01:43:57.650Z,95829.00
2023-01-08T01:46:23.990Z,95831.34
2023-01-08T01:48:50.353Z,95831.69
2023-01-08T01:51:16.761Z,95829.84
2023-01-08T01:53:43.118Z,95819.38
2023-01-08T01:56:09.478Z,95819.91
2023-01-08T01:58:35.833Z,95823.94
2023-01-08T02:01:02.273Z,95817.75
2023-01-08T02:03:28.698Z,95820.84
2023-01-08T02:05:55.092Z,95827.97
2023-01-08T02:08:21.501Z,95830.75
2023-01-08T02:10:47.866Z,95825.50
2023-01-08T02:13:14.259Z,95819.34
2023-01-08T02:15:40.626Z,95814.22
2023-01-08T02:18:06.975Z,95804.03
2023-01-08T02:20:33.358Z,95797.81
2023-01-08T02:22:59.744Z,95792.16
2023-01-08T02:25:26.108Z,95802.16
2023-01-08T02:27:52.510Z,95807.44
2023-01-08T02:30:18.868Z,95811.09
2023-01-08T02:32:45.263Z,95803.47
2023-01-08T02:35:11.607Z,95805.72
2023-01-08T02:37:38.005Z,95812.66
2023-01-08T02:40:04.433Z,95819.00
2023-01-08T02:42:30.828Z,95814.75
2023-01-08T02:44:57.172Z,95829.22
2023-01-08T02:47:23.531Z,95840.03
2023-01-08T02:49:49.915Z,95846.88
2023-01-08T02:52:16.254Z,95849.97
2023-01-08T02:54:42.652Z,95846.28
2023-01-08T02:57:09.054Z,95854.06
2023-01-08T02:59:35.459Z,95855.00
2023-01-08T03:02:02.006Z,95859.47
2023-01-08T03:04:28.553Z,95862.34
2023-01-08T03:06:54.927Z,95859.97
2023-01-08T03:09:21.282Z,95853.34
2023-01-08T03:11:47.617Z,95858.81
2023-01-08T03:14:13.999Z,95861.56
2023-01-08T03:16:40.438Z,95862.13
2023-01-08T03:19:07.446Z,95853.69
2023-01-08T03:21:33.881Z,95850.50
2023-01-08T03:24:00.286Z,95844.44
2023-01-08T03:26:26.678Z,95848.91
2023-01-08T03:28:53.048Z,95846.28
2023-01-08T03:31:19.438Z,95847.81
2023-01-08T03:33:45.823Z,95839.88
2023-01-08T03:36:12.212Z,95850.53
2023-01-08T03:38:38.624Z,95853.31
2023-01-08T03:41:05.017Z,95848.09
2023-01-08T03:43:31.374Z,95845.47
2023-01-08T03:45:57.771Z,95844.03
2023-01-08T03:48:24.153Z,95845.38
2023-01-08T03:50:50.497Z,95841.06
2023-01-08T03:53:16.875Z,95847.34
2023-01-08T03:55:43.265Z,95840.69
2023-01-08T03:58:09.619Z,95831.19
2023-01-08T04:00:35.974Z,95834.16
2023-01-08T04:03:04.410Z,95826.75
2023-01-08T04:05:32.097Z,95820.84
2023-01-08T04:07:58.483Z,95825.63
2023-01-08T04:10:24.880Z,95836.19
2023-01-08T04:12:51.244Z,95831.66
2023-01-08T04:15:17.601Z,95826.06
2023-01-08T04:17:43.990Z,95820.91
2023-01-08T04:20:10.344Z,95829.13
2023-01-08T04:22:36.745Z,95811.44
2023-01-08T04:25:03.120Z,95825.16
2023-01-08T04:27:29.504Z,95822.22
2023-01-08T04:29:55.866Z,95808.44
2023-01-08T04:32:22.242Z,95804.25
2023-01-08T04:34:48.619Z,95802.66
2023-01-08T04:37:16.056Z,95803.75
2023-01-08T04:39:42.405Z,95792.41
2023-01-08T04:42:08.800Z,95786.97
2023-01-08T04:44:35.196Z,95787.53
2023-01-08T04:47:01.541Z,95788.50
2023-01-08T04:49:27.902Z,95784.31
2023-01-08T04:51:54.258Z,95792.25
2023-01-08T04:54:20.595Z,95786.91
2023-01-08T04:56:46.968Z,95784.38
2023-01-08T04:59:13.358Z,95782.78
2023-01-08T05:01:39.832Z,95786.47
2023-01-08T05:04:06.247Z,95791.19
2023-01-08T05:06:32.603Z,95794.91
2023-01-08T05:08:58.960Z,95791.72
2023-01-08T05:11:25.312Z,95795.47
2023-01-08T05:13:51.659Z,95778.91
2023-01-08T05:16:18.113Z,95773.13
2023-01-08T05:18:44.520Z,95774.91
2023-01-08T05:21:10.879Z,95764.91
2023-01-08T05:23:37.281Z,95753.88
2023-01-08T05:26:03.669Z,95736.50
2023-01-08T05:28:30.023Z,95730.72
2023-01-08T05:30:56.418Z,95738.03
2023-01-08T05:33:22.795Z,95728.59
2023-01-08T05:35:49.202Z,95718.34
2023-01-08T05:38:15.559Z,95708.66
2023-01-08T05:40:41.969Z,95719.94
2023-01-08T05:43:08.319Z,95713.69
2023-01-08T05:45:34.727Z,95722.38
2023-01-08T05:48:01.124Z,95735.25
2023-01-08T05:50:27.518Z,95733.09
2023-01-08T05:52:53.941Z,95741.75
2023-01-08T05:55:20.358Z,95746.75
2023-01-08T05:57:46.725Z,95740.72
2023-01-08T06:00:13.060Z,95748.66
2023-01-08T06:02:39.460Z,95757.34
2023-01-08T06:05:05.877Z,95765.50
2023-01-08T06:07:32.274Z,95758.44
2023-01-08T06:09:58.666Z,95752.47
2023-01-08T06:12:25.012Z,95755.06
2023-01-08T06:14:51.415Z,95755.44
2023-01-08T06:17:17.762Z,95748.13
2023-01-08T06:19:44.111Z,95743.88
2023-01-08T06:22:10.499Z,95760.66
2023-01-08T06:24:36.858Z,95779.63
2023-01-08T06:27:03.226Z,95791.19
2023-01-08T06:29:29.613Z,95782.25
2023-01-08T06:31:56.016Z,95792.25
2023-01-08T06:34:22.428Z,95785.94
2023-01-08T06:36:48.797Z,95787.84
2023-01-08T06:39:15.142Z,95790.41
2023-01-08T06:41:41.547Z,95795.94
2023-01-08T06:44:07.899Z,95781.22
2023-01-08T06:46:34.315Z,95787.28
2023-01-08T06:49:00.738Z,95787.53
2023-01-08T06:51:27.087Z,95783.38
2023-01-08T06:53:53.469Z,95785.50
2023-01-08T06:56:19.822Z,95784.94
2023-01-08T06:58:46.184Z,95786.03
2023-01-08T07:01:12.637Z,95782.53
2023-01-08T07:03:39.159Z,95784.91
2023-01-08T07:06:05.555Z,95795.94
2023-01-08T07:08:31.965Z,95785.16
2023-01-08T07:10:58.316Z,95796.94
2023-01-08T07:13:24.671Z,95789.38
2023-01-08T07:15:51.106Z,95787.53
2023-01-08T07:18:17.482Z,95797.56
2023-01-08T07:20:43.862Z,95797.28
2023-01-08T07:23:10.263Z,95794.63
2023-01-08T07:25:36.641Z,95797.03
2023-01-08T07:28:03.054Z,95810.72
2023-01-08T07:30:30.611Z,95802.28
2023-01-08T07:32:57.242Z,95816.53
2023-01-08T07:35:23.576Z,95808.13
2023-01-08T07:37:49.932Z,95817.00
2023-01-08T07:40:16.277Z,95800.22
2023-01-08T07:42:42.649Z,95806.53
2023-01-08T07:45:09.009Z,95807.03
2023-01-08T07:47:35.396Z,95809.19
2023-01-08T07:50:01.752Z,95811.53
2023-01-08T07:52:28.098Z,95819.19
2023-01-08T07:54:54.446Z,95823.34
2023-01-08T07:57:20.777Z,95815.47
2023-01-08T07:59:47.162Z,95819.16
2023-01-08T08:02:13.625Z,95818.66
2023-01-08T08:04:40.042Z,95816.00
2023-01-08T08:07:06.382Z,95815.47
2023-01-08T08:09:32.764Z,95823.91
2023-01-08T08:11:59.152Z,95819.69
2023-01-08T08:14:25.547Z,95826.56
2023-01-08T08:16:51.909Z,95824.94
2023-01-08T08:19:18.297Z,95824.22
2023-01-08T08:21:44.679Z,95820.25
2023-01-08T08:24:11.073Z,95815.00
2023-01-08T08:26:37.446Z,95816.06
2023-01-08T08:29:03.830Z,95816.06
2023-01-08T08:31:30.277Z,95819.47
2023-01-08T08:33:56.673Z,95813.69
2023-01-08T08:36:23.055Z,95810.19
2023-01-08T08:38:49.410Z,95806.53
2023-01-08T08:41:15.784Z,95806.06
2023-01-08T08:43:42.192Z,95804.94
2023-01-08T08:46:08.596Z,95804.47
2023-01-08T08:48:34.967Z,95798.66
2023-01-08T08:51:01.297Z,95798.13
2023-01-08T08:53:27.875Z,95795.00
2023-01-08T08:55:54.300Z,95789.75
2023-01-08T08:58:20.732Z,95789.63
2023-01-08T09:00:47.084Z,95791.25
2023-01-08T09:03:13.490Z,95788.13
2023-01-08T09:05:39.927Z,95783.97
2023-01-08T09:08:06.328Z,95783.97
2023-01-08T09:10:32.722Z,95791.22
2023-01-08T09:12:59.068Z,95789.13
2023-01-08T09:15:25.433Z,95779.25
2023-01-08T09:17:51.842Z,95782.94
2023-01-08T09:20:18.234Z,95779.50
2023-01-08T09:22:44.607Z,95776.34
2023-01-08T09:25:11.000Z,95782.69
2023-01-08T09:27:37.394Z,95779.25
2023-01-08T09:30:03.800Z,95773.47
2023-01-08T09:32:30.201Z,95772.94
2023-01-08T09:34:56.611Z,95778.19
2023-01-08T09:37:22.965Z,95777.16
2023-01-08T09:39:57.647Z,95774.00
2023-01-08T09:42:28.270Z,95774.53
2023-01-08T09:44:54.660Z,95760.31
2023-01-08T09:47:21.057Z,95764.00
2023-01-08T09:49:47.451Z,95767.66
2023-01-08T09:52:13.795Z,95772.38
2023-01-08T09:54:40.146Z,95755.59
2023-01-08T09:57:06.493Z,95750.31
2023-01-08T09:59:32.863Z,95745.81
2023-01-08T10:01:59.308Z,95742.44
2023-01-08T10:04:25.785Z,95739.28
2023-01-08T10:06:52.175Z,95736.13
2023-01-08T10:09:18.540Z,95729.28
2023-01-08T10:11:44.910Z,95727.19
2023-01-08T10:14:11.320Z,95722.94
2023-01-08T10:16:37.716Z,95722.41
2023-01-08T10:19:04.068Z,95717.19
2023-01-08T10:21:30.405Z,95707.19
2023-01-08T10:23:56.782Z,95698.75
2023-01-08T10:26:27.090Z,95692.44
2023-01-08T10:28:53.497Z,95689.25
2023-01-08T10:31:19.927Z,95684.50
2023-01-08T10:33:47.451Z,95671.06
2023-01-08T10:36:13.831Z,95672.38
2023-01-08T10:38:40.245Z,95670.34
2023-01-08T10:41:06.615Z,95662.44
2023-01-08T10:43:32.951Z,95646.56
2023-01-08T10:45:59.357Z,95649.19
2023-01-08T10:48:25.707Z,95633.91
2023-01-08T10:50:52.085Z,95622.59
2023-01-08T10:53:18.475Z,95618.69
2023-01-08T10:55:44.831Z,95611.31
2023-01-08T10:58:11.187Z,95612.81
2023-01-08T11:00:37.575Z,95616.00
2023-01-08T11:03:03.948Z,95625.22
2023-01-08T11:05:30.304Z,95631.03
2023-01-08T11:07:56.695Z,95625.50
2023-01-08T11:10:23.127Z,95626.56
2023-01-08T11:12:49.507Z,95630.28
2023-01-08T11:15:15.838Z,95629.47
2023-01-08T11:17:42.184Z,95632.09
2023-01-08T11:20:08.572Z,95625.50
2023-01-08T11:22:34.924Z,95617.59
2023-01-08T11:25:01.308Z,95617.59
2023-01-08T11:27:27.694Z,95611.25
2023-01-08T11:29:54.053Z,95605.25
2023-01-08T11:32:20.391Z,95600.19
2023-01-08T11:34:46.740Z,95598.19
2023-01-08T11:37:13.130Z,95593.91
2023-01-08T11:39:39.489Z,95601.75
2023-01-08T11:42:05.883Z,95602.31
2023-01-08T11:44:32.275Z,95597.28
2023-01-08T11:46:58.634Z,95595.44
2023-01-08T11:49:25.028Z,95588.06
2023-01-08T11:51:51.427Z,95581.22
2023-01-08T11:54:17.829Z,95582.34
2023-01-08T11:56:44.216Z,95572.28
2023-01-08T11:59:10.578Z,95574.44
2023-01-08T12:01:37.053Z,95572.25
2023-01-08T12:04:03.507Z,95570.69
2023-01-08T12:06:29.904Z,95567.56
2023-01-08T12:08:56.283Z,95558.28
2023-01-08T12:11:22.659Z,95544.63
2023-01-08T12:13:49.071Z,95542.72
2023-01-08T12:16:15.482Z,95539.03
2023-01-08T12:18:41.922Z,95541.16
2023-01-08T12:21:08.278Z,95528.75
2023-01-08T12:23:34.662Z,95536.19
2023-01-08T12:26:01.019Z,95527.47
2023-01-08T12:28:27.403Z,95519.66
2023-01-08T12:30:53.800Z,95519.59
2023-01-08T12:33:20.156Z,95513.75
2023-01-08T12:35:46.542Z,95512.69
2023-01-08T12:38:12.893Z,95512.34
2023-01-08T12:40:39.243Z,95501.66
2023-01-08T12:43:05.887Z,95510.34
2023-01-08T12:45:32.367Z,95501.16
2023-01-08T12:47:58.811Z,95490.59
2023-01-08T12:50:25.265Z,95491.69
2023-01-08T12:52:51.618Z,95489.31
2023-01-08T12:55:17.975Z,95476.13
2023-01-08T12:57:44.373Z,95469.97
2023-01-08T13:00:10.769Z,95458.22
2023-01-08T13:02:37.271Z,95448.59
2023-01-08T13:05:03.704Z,95450.09
2023-01-08T13:07:30.052Z,95454.28
2023-01-08T13:09:56.399Z,95441.09
2023-01-08T13:12:22.779Z,95422.75
2023-01-08T13:14:49.164Z,95421.72
2023-01-08T13:17:15.544Z,95414.81
2023-01-08T13:19:41.929Z,95417.47
2023-01-08T13:22:08.303Z,95409.00
2023-01-08T13:24:34.712Z,95401.69
2023-01-08T13:27:01.125Z,95397.16
2023-01-08T13:29:27.530Z,95391.63
2023-01-08T13:31:53.916Z,95384.78
2023-01-08T13:34:20.301Z,95387.41
2023-01-08T13:36:46.692Z,95383.28
2023-01-08T13:39:13.088Z,95384.81
2023-01-08T13:41:39.481Z,95379.53
2023-01-08T13:44:05.841Z,95383.53
2023-01-08T13:46:32.230Z,95367.44
2023-01-08T13:48:58.589Z,95366.53
2023-01-08T13:51:24.989Z,95369.06
2023-01-08T13:53:51.355Z,95369.66
2023-01-08T13:56:17.709Z,95370.94
2023-01-08T13:58:44.087Z,95369.06
2023-01-08T14:01:10.511Z,95367.47
2023-01-08T14:03:36.951Z,95363.81
2023-01-08T14:06:03.289Z,95360.09
2023-01-08T14:08:29.634Z,95346.41
2023-01-08T14:10:55.991Z,95348.50
2023-01-08T14:13:22.356Z,95336.59
2023-01-08T14:15:48.698Z,95334.94
2023-01-08T14:18:15.066Z,95336.94
2023-01-08T14:20:41.468Z,95340.22
2023-01-08T14:23:07.855Z,95331.22
2023-01-08T14:25:34.206Z,95335.66
2023-01-08T14:28:00.550Z,95331.38
2023-01-08T14:30:26.912Z,95340.56
2023-01-08T14:32:53.307Z,95333.16
2023-01-08T14:35:19.664Z,95331.88
2023-01-08T14:37:46.023Z,95312.94
2023-01-08T14:40:12.357Z,95310.03
2023-01-08T14:42:38.732Z,95309.06
2023-01-08T14:45:05.065Z,95310.72
2023-01-08T14:47:31.413Z,95314.44
2023-01-08T14:49:57.797Z,95294.50
2023-01-08T14:52:24.165Z,95306.00
2023-01-08T14:54:50.510Z,95312.28
2023-01-08T14:57:16.863Z,95316.81
2023-01-08T14:59:43.222Z,95310.50
2023-01-08T15:02:09.739Z,95290.94
2023-01-08T15:04:36.179Z,95287.97
2023-01-08T15:07:02.535Z,95289.50
2023-01-08T15:09:28.910Z,95272.78
2023-01-08T15:11:55.275Z,95278.13
2023-01-08T15:14:21.659Z,95258.97
2023-01-08T15:16:48.142Z,95255.50
2023-01-08T15:19:14.546Z,95245.84
2023-01-08T15:21:40.883Z,95249.38
2023-01-08T15:24:07.228Z,95236.41
2023-01-08T15:26:33.625Z,95232.25
2023-01-08T15:29:00.035Z,95233.88
2023-01-08T15:31:26.475Z,95238.38
2023-01-08T15:33:52.844Z,95227.78
2023-01-08T15:36:19.229Z,95232.34
2023-01-08T15:38:45.617Z,95224.81
2023-01-08T15:41:12.007Z,95224.56
2023-01-08T15:43:38.359Z,95217.41
2023-01-08T15:46:04.765Z,95226.69
2023-01-08T15:48:31.226Z,95225.88
2023-01-08T15:50:57.621Z,95211.44
2023-01-08T15:53:24.022Z,95197.09
2023-01-08T15:55:50.413Z,95198.66
2023-01-08T15:58:16.776Z,95212.22
2023-01-08T16:00:43.168Z,95207.75
2023-01-08T16:03:09.571Z,95189.38
2023-01-08T16:05:35.930Z,95207.19
2023-01-08T16:08:02.331Z,95193.31
2023-01-08T16:10:28.736Z,95175.88
2023-01-08T16:12:55.100Z,95179.94
2023-01-08T16:15:21.458Z,95182.41
2023-01-08T16:17:47.860Z,95182.81
2023-01-08T16:20:14.257Z,95181.56
2023-01-08T16:22:40.634Z,95178.75
2023-01-08T16:25:07.048Z,95172.25
2023-01-08T16:27:33.424Z,95169.19
2023-01-08T16:29:59.833Z,95163.53
2023-01-08T16:32:26.227Z,95165.75
2023-01-08T16:34:52.578Z,95169.91
2023-01-08T16:37:18.943Z,95167.78
2023-01-08T16:39:45.311Z,95156.88
2023-01-08T16:42:11.685Z,95170.19
2023-01-08T16:44:38.087Z,95166.44
2023-01-08T16:47:04.511Z,95153.47
2023-01-08T16:49:30.880Z,95152.00
2023-01-08T16:51:57.230Z,95156.56
2023-01-08T16:54:23.609Z,95156.78
2023-01-08T16:56:50.013Z,95150.06
2023-01-08T16:59:23.208Z,95154.63
2023-01-08T17:01:50.414Z,95145.69
2023-01-08T17:04:16.835Z,95149.50
2023-01-08T17:06:43.224Z,95152.56
2023-01-08T17:09:11.519Z,95154.28
2023-01-08T17:11:38.179Z,95146.81
2023-01-08T17:14:04.537Z,95148.69
2023-01-08T17:16:30.964Z,95146.25
2023-01-08T17:18:57.347Z,95135.19
2023-01-08T17:21:23.707Z,95128.47
2023-01-08T17:23:50.041Z,95125.16
2023-01-08T17:26:16.414Z,95130.25
2023-01-08T17:28:42.780Z,95130.56
2023-01-08T17:31:09.163Z,95122.53
2023-01-08T17:33:35.535Z,95127.00
2023-01-08T17:36:01.865Z,95123.34
2023-01-08T17:38:28.217Z,95109.97
2023-01-08T17:40:54.612Z,95116.19
2023-01-08T17:43:20.977Z,95113.50
2023-01-08T17:45:47.426Z,95098.91
2023-01-08T17:48:13.830Z,95091.25
2023-01-08T17:50:40.218Z,95095.97
2023-01-08T17:53:06.628Z,95108.78
2023-01-08T17:55:33.010Z,95109.19
2023-01-08T17:57:59.350Z,95102.41
2023-01-08T18:00:25.710Z,95094.84
2023-01-08T18:02:52.155Z,95091.41
2023-01-08T18:05:18.539Z,95088.84
2023-01-08T18:07:44.876Z,95091.41
2023-01-08T18:10:11.274Z,95095.47
2023-01-08T18:12:37.636Z,95086.31
2023-01-08T18:15:03.975Z,95086.38
2023-01-08T18:17:30.323Z,95080.50
2023-01-08T18:19:56.730Z,95081.75
2023-01-08T18:22:23.127Z,95096.22
2023-01-08T18:24:49.490Z,95078.44
2023-01-08T18:27:15.902Z,95082.38
2023-01-08T18:29:42.262Z,95084.22
2023-01-08T18:32:08.626Z,95090.25
2023-01-08T18:34:35.053Z,95093.66
2023-01-08T18:37:01.594Z,95087.34
2023-01-08T18:39:27.951Z,95084.25
2023-01-08T18:41:54.334Z,95088.59
2023-01-08T18:44:20.711Z,95088.72
2023-01-08T18:46:48.212Z,95087.34
2023-01-08T18:49:14.744Z,95081.59
2023-01-08T18:51:41.095Z,95075.84
2023-01-08T18:54:07.495Z,95068.28
2023-01-08T18:56:33.953Z,95062.59
2023-01-08T18:59:00.355Z,95064.59
2023-01-08T19:01:26.935Z,95070.66
2023-01-08T19:03:53.448Z,95069.97
2023-01-08T19:06:19.849Z,95074.53
2023-01-08T19:08:46.208Z,95075.16
2023-01-08T19:11:12.580Z,95069.91
2023-01-08T19:13:38.951Z,95063.47
2023-01-08T19:16:05.390Z,95062.50
2023-01-08T19:18:31.783Z,95062.06
2023-01-08T19:21:00.023Z,95060.88
2023-01-08T19:23:26.493Z,95048.78
2023-01-08T19:25:52.847Z,95048.72
2023-01-08T19:28:19.198Z,95045.97
2023-01-08T19:30:45.619Z,95042.47
2023-01-08T19:33:11.972Z,95040.53
2023-01-08T19:35:38.356Z,95036.50
2023-01-08T19:38:04.761Z,95036.06
2023-01-08T19:40:31.122Z,95039.28
2023-01-08T19:42:57.515Z,95048.72
2023-01-08T19:45:23.908Z,95052.34
2023-01-08T19:47:50.325Z,95041.09
2023-01-08T19:50:16.722Z,95045.13
2023-01-08T19:52:43.111Z,95042.81
2023-01-08T19:55:09.489Z,95044.72
2023-01-08T19:57:35.832Z,95039.47
2023-01-08T20:00:02.189Z,95047.88
2023-01-08T20:02:28.719Z,95037.78
2023-01-08T20:04:55.138Z,95047.88
2023-01-08T20:07:21.523Z,95045.72
2023-01-08T20:09:47.867Z,95054.13
2023-01-08T20:12:14.325Z,95039.47
2023-01-08T20:14:40.912Z,95044.84
2023-01-08T20:17:07.289Z,95043.97
2023-01-08T20:19:33.676Z,95042.41
2023-01-08T20:22:00.318Z,95040.72
2023-01-08T20:24:26.668Z,95035.59
2023-01-08T20:26:53.121Z,95038.47
2023-01-08T20:29:19.589Z,95030.75
2023-01-08T20:31:45.972Z,95030.84
2023-01-08T20:34:12.347Z,95032.41
2023-01-08T20:36:38.756Z,95034.16
2023-01-08T20:39:05.171Z,95032.31
2023-01-08T20:41:31.543Z,95032.19
2023-01-08T20:43:57.948Z,95032.09
2023-01-08T20:46:24.351Z,95036.59
2023-01-08T20:48:50.715Z,95028.69
2023-01-08T20:51:17.051Z,95033.31
2023-01-08T20:53:43.457Z,95038.47
2023-01-08T20:56:09.851Z,95026.44
2023-01-08T20:58:36.436Z,95031.53
2023-01-08T21:01:02.921Z,95029.16
2023-01-08T21:03:29.331Z,95028.22
2023-01-08T21:05:55.726Z,95023.00
2023-01-08T21:08:22.108Z,95025.06
2023-01-08T21:10:48.524Z,95034.75
2023-01-08T21:13:14.886Z,95026.59
2023-01-08T21:15:41.284Z,95021.31
2023-01-08T21:18:07.693Z,95017.09
2023-01-08T21:20:34.099Z,95022.31
2023-01-08T21:23:00.527Z,95011.06
2023-01-08T21:25:26.921Z,95017.69
2023-01-08T21:27:53.314Z,95017.84
2023-01-08T21:30:19.658Z,95017.41
2023-01-08T21:32:46.041Z,95010.50
2023-01-08T21:35:12.419Z,95011.72
2023-01-08T21:37:38.797Z,95013.44
2023-01-08T21:40:05.191Z,95001.19
2023-01-08T21:42:31.577Z,95004.16
2023-01-08T21:44:57.988Z,95005.94
2023-01-08T21:47:24.362Z,94999.19
2023-01-08T21:49:50.732Z,94991.81
2023-01-08T21:52:17.111Z,94983.00
2023-01-08T21:54:43.510Z,94981.84
2023-01-08T21:57:09.910Z,94980.97
2023-01-08T21:59:36.333Z,94970.25
2023-01-08T22:02:02.727Z,94979.34
2023-01-08T22:04:29.333Z,94969.72
2023-01-08T22:06:55.792Z,94974.72
2023-01-08T22:09:22.156Z,94982.53
2023-01-08T22:11:48.544Z,94978.72
2023-01-08T22:14:14.962Z,94976.13
2023-01-08T22:16:41.377Z,94981.69
2023-01-08T22:19:07.782Z,94979.84
2023-01-08T22:21:34.150Z,94988.16
2023-01-08T22:24:00.784Z,94984.47
2023-01-08T22:26:27.145Z,94981.59
2023-01-08T22:28:53.539Z,94979.69
2023-01-08T22:31:19.956Z,94977.22
2023-01-08T22:33:46.353Z,94977.34
2023-01-08T22:36:12.713Z,94973.03
2023-01-08T22:38:39.094Z,94974.56
2023-01-08T22:41:05.514Z,94968.69
2023-01-08T22:43:31.909Z,94971.16
2023-01-08T22:45:58.317Z,94976.84
2023-01-08T22:48:24.756Z,94971.00
2023-01-08T22:50:51.109Z,94974.16
2023-01-08T22:53:17.490Z,94970.44
2023-01-08T22:55:43.859Z,94967.19
2023-01-08T22:58:10.245Z,94960.34
2023-01-08T23:00:36.579Z,94966.50
2023-01-08T23:03:02.950Z,94973.72
2023-01-08T23:05:29.325Z,94977.91
2023-01-08T23:07:55.702Z,94975.22
2023-01-08T23:10:22.065Z,94980.91
2023-01-08T23:12:48.412Z,94978.78
2023-01-08T23:15:14.806Z,94954.03
2023-01-08T23:17:51.628Z,94949.56
2023-01-08T23:20:18.709Z,94948.34
2023-01-08T23:22:45.106Z,94957.75
2023-01-08T23:25:11.497Z,94961.78
2023-01-08T23:27:37.893Z,94952.94
2023-01-08T23:30:04.281Z,94952.50
2023-01-08T23:32:30.672Z,94958.53
2023-01-08T23:34:57.053Z,94958.53
2023-01-08T23:37:23.417Z,94957.66
2023-01-08T23:39:49.761Z,94947.44
2023-01-08T23:42:16.110Z,94946.25
2023-01-08T23:44:42.494Z,94948.25
2023-01-08T23:47:08.839Z,94962.19
2023-01-08T23:49:35.172Z,94969.22
2023-01-08T23:52:01.551Z,94961.19
2023-01-08T23:54:27.943Z,94949.50
2023-01-08T23:56:54.354Z,94950.81
2023-01-08T23:59:20.787Z,94954.59
